createdAt,value
2023-04-08T00:00:49.741Z,10.60
2023-04-08T00:03:17.070Z,11.32
2023-04-08T00:05:44.414Z,9.32
2023-04-08T00:08:11.389Z,10.30
2023-04-08T00:10:38.441Z,9.50
2023-04-08T00:13:05.520Z,11.85
2023-04-08T00:15:32.532Z,12.43
2023-04-08T00:17:59.562Z,11.20
2023-04-08T00:20:26.631Z,8.77
2023-04-08T00:22:53.630Z,13.25
2023-04-08T00:25:22.273Z,8.40
2023-04-08T00:27:50.841Z,11.57
2023-04-08T00:30:18.107Z,9.85
2023-04-08T00:32:45.569Z,12.05
2023-04-08T00:35:13.080Z,11.65
2023-04-08T00:37:40.778Z,8.25
2023-04-08T00:40:08.261Z,14.48
2023-04-08T00:42:35.602Z,9.75
2023-04-08T00:45:02.579Z,8.65
2023-04-08T00:47:29.670Z,15.38
2023-04-08T00:49:56.794Z,13.00
2023-04-08T00:52:23.878Z,9.35
2023-04-08T00:54:51.010Z,11.55
2023-04-08T00:57:18.128Z,10.05
2023-04-08T00:59:45.420Z,11.90
2023-04-08T01:02:15.205Z,15.63
2023-04-08T01:05:02.165Z,8.88
2023-04-08T01:07:47.179Z,11.73
2023-04-08T01:10:30.206Z,10.10
2023-04-08T01:12:59.772Z,10.07
2023-04-08T01:15:30.889Z,9.38
2023-04-08T01:17:59.621Z,11.10
2023-04-08T01:20:28.676Z,12.75
2023-04-08T01:23:06.025Z,8.30
2023-04-08T01:25:35.581Z,12.75
2023-04-08T01:28:12.790Z,10.27
2023-04-08T01:30:41.572Z,11.73
2023-04-08T01:33:12.181Z,8.30
2023-04-08T01:35:39.738Z,13.07
2023-04-08T01:38:10.417Z,12.07
2023-04-08T01:40:39.346Z,10.45
2023-04-08T01:43:08.492Z,10.45
2023-04-08T01:45:35.441Z,13.38
2023-04-08T01:48:03.889Z,12.65
2023-04-08T01:50:31.873Z,12.93
2023-04-08T01:53:00.238Z,8.73
2023-04-08T01:55:28.900Z,11.40
2023-04-08T01:58:01.328Z,13.02
2023-04-08T02:00:31.720Z,8.95
2023-04-08T02:03:01.300Z,14.10
2023-04-08T02:05:28.755Z,13.05
2023-04-08T02:07:55.870Z,15.98
2023-04-08T02:10:22.960Z,11.88
2023-04-08T02:12:50.353Z,12.18
2023-04-08T02:15:17.557Z,11.85
2023-04-08T02:17:55.143Z,14.35
2023-04-08T02:20:57.502Z,14.75
2023-04-08T02:23:27.638Z,13.55
2023-04-08T02:25:56.461Z,13.80
2023-04-08T02:28:26.555Z,17.38
2023-04-08T02:30:54.871Z,11.93
2023-04-08T02:33:23.416Z,12.40
2023-04-08T02:35:52.190Z,14.30
2023-04-08T02:38:19.195Z,13.15
2023-04-08T02:40:46.126Z,10.80
2023-04-08T02:43:13.030Z,15.63
2023-04-08T02:45:42.617Z,15.20
2023-04-08T02:48:10.269Z,15.25
2023-04-08T02:50:37.646Z,15.90
2023-04-08T02:53:04.538Z,13.13
2023-04-08T02:55:31.523Z,13.02
2023-04-08T02:57:58.560Z,17.38
2023-04-08T03:00:25.580Z,12.02
2023-04-08T03:02:52.876Z,12.18
2023-04-08T03:05:20.169Z,13.52
2023-04-08T03:07:47.276Z,12.45
2023-04-08T03:10:14.746Z,14.77
2023-04-08T03:12:41.688Z,12.60
2023-04-08T03:15:09.040Z,14.98
2023-04-08T03:17:36.274Z,17.20
2023-04-08T03:20:07.028Z,11.57
2023-04-08T03:22:34.394Z,17.33
2023-04-08T03:25:01.581Z,17.35
2023-04-08T03:27:28.675Z,15.20
2023-04-08T03:29:57.850Z,15.50
2023-04-08T03:32:25.268Z,14.93
2023-04-08T03:34:52.334Z,15.25
2023-04-08T03:37:19.631Z,15.85
2023-04-08T03:39:46.732Z,15.55
2023-04-08T03:42:13.705Z,12.65
2023-04-08T03:44:40.680Z,16.50
2023-04-08T03:47:07.799Z,15.00
2023-04-08T03:49:34.931Z,17.08
2023-04-08T03:52:02.171Z,19.15
2023-04-08T03:54:29.168Z,11.98
2023-04-08T03:56:56.318Z,18.15
2023-04-08T03:59:23.436Z,18.67
2023-04-08T04:01:51.576Z,20.35
2023-04-08T04:04:18.826Z,15.13
2023-04-08T04:06:46.091Z,16.42
2023-04-08T04:09:13.170Z,17.50
2023-04-08T04:11:40.131Z,23.65
2023-04-08T04:14:07.093Z,20.08
2023-04-08T04:16:34.102Z,17.38
2023-04-08T04:19:01.195Z,18.52
2023-04-08T04:21:28.218Z,19.23
2023-04-08T04:23:55.308Z,22.13
2023-04-08T04:26:22.252Z,22.60
2023-04-08T04:28:49.862Z,20.35
2023-04-08T04:31:26.428Z,20.52
2023-04-08T04:33:54.973Z,20.00
2023-04-08T04:36:22.131Z,18.55
2023-04-08T04:38:50.849Z,18.52
2023-04-08T04:41:18.198Z,22.35
2023-04-08T04:43:45.218Z,21.95
2023-04-08T04:46:12.269Z,20.52
2023-04-08T04:48:39.294Z,19.10
2023-04-08T04:51:07.680Z,20.30
2023-04-08T04:53:34.879Z,18.77
2023-04-08T04:56:02.236Z,22.00
2023-04-08T04:58:30.179Z,20.08
2023-04-08T05:00:57.409Z,21.83
2023-04-08T05:03:24.626Z,21.52
2023-04-08T05:05:53.308Z,19.35
2023-04-08T05:08:21.202Z,23.48
2023-04-08T05:10:50.283Z,18.63
2023-04-08T05:13:18.448Z,18.98
2023-04-08T05:15:46.076Z,18.73
2023-04-08T05:18:13.379Z,23.08
2023-04-08T05:20:40.508Z,22.25
2023-04-08T05:23:07.909Z,19.95
2023-04-08T05:25:35.117Z,23.33
2023-04-08T05:28:02.687Z,22.02
2023-04-08T05:30:29.928Z,20.52
2023-04-08T05:32:59.374Z,21.50
2023-04-08T05:35:27.369Z,24.48
2023-04-08T05:37:54.454Z,19.75
2023-04-08T05:40:21.479Z,22.30
2023-04-08T05:42:48.401Z,20.02
2023-04-08T05:45:16.261Z,22.77
2023-04-08T05:47:43.473Z,22.52
2023-04-08T05:50:11.458Z,27.48
2023-04-08T05:52:42.713Z,29.00
2023-04-08T05:55:09.826Z,21.30
2023-04-08T05:57:37.122Z,21.10
2023-04-08T06:00:09.506Z,30.25
2023-04-08T06:02:37.238Z,22.02
2023-04-08T06:05:05.574Z,21.83
2023-04-08T06:07:33.151Z,24.77
2023-04-08T06:10:00.169Z,27.27
2023-04-08T06:12:27.286Z,28.20
2023-04-08T06:14:56.055Z,25.10
2023-04-08T06:17:23.367Z,23.95
2023-04-08T06:19:50.489Z,22.42
2023-04-08T06:22:17.420Z,26.45
2023-04-08T06:24:44.499Z,23.38
2023-04-08T06:27:11.470Z,29.33
2023-04-08T06:29:38.810Z,23.08
2023-04-08T06:32:07.014Z,21.13
2023-04-08T06:34:33.986Z,24.20
2023-04-08T06:37:01.158Z,22.60
2023-04-08T06:39:28.089Z,25.20
2023-04-08T06:41:55.030Z,26.77
2023-04-08T06:44:21.933Z,33.30
2023-04-08T06:46:49.020Z,25.50
2023-04-08T06:49:16.030Z,27.60
2023-04-08T06:51:43.014Z,25.95
2023-04-08T06:54:12.577Z,24.25
2023-04-08T06:56:39.452Z,23.73
2023-04-08T06:59:06.406Z,26.50
2023-04-08T07:01:33.425Z,24.02
2023-04-08T07:04:02.448Z,25.52
2023-04-08T07:06:29.541Z,24.23
2023-04-08T07:08:59.104Z,24.80
2023-04-08T07:11:26.417Z,24.30
2023-04-08T07:13:53.463Z,28.77
2023-04-08T07:16:20.479Z,29.77
2023-04-08T07:18:47.964Z,23.20
2023-04-08T07:21:15.374Z,27.80
2023-04-08T07:23:42.418Z,22.70
2023-04-08T07:26:09.465Z,22.58
2023-04-08T07:28:36.498Z,21.98
2023-04-08T07:31:10.886Z,17.92
2023-04-08T07:33:37.919Z,20.90
2023-04-08T07:36:05.339Z,17.98
2023-04-08T07:38:32.434Z,21.35
2023-04-08T07:40:59.528Z,18.98
2023-04-08T07:43:26.769Z,18.52
2023-04-08T07:45:53.851Z,21.60
2023-04-08T07:48:21.387Z,22.73
2023-04-08T07:51:08.386Z,20.00
2023-04-08T07:53:36.320Z,22.33
2023-04-08T07:56:06.204Z,19.80
2023-04-08T07:58:33.243Z,20.65
2023-04-08T08:01:00.367Z,17.70
2023-04-08T08:03:27.570Z,17.95
2023-04-08T08:05:54.578Z,16.45
2023-04-08T08:08:21.498Z,16.25
2023-04-08T08:10:48.395Z,17.20
2023-04-08T08:13:17.337Z,16.60
2023-04-08T08:15:44.330Z,13.02
2023-04-08T08:18:11.567Z,18.58
2023-04-08T08:20:38.448Z,14.23
2023-04-08T08:23:05.557Z,15.52
2023-04-08T08:25:32.648Z,14.82
2023-04-08T08:27:59.635Z,14.60
2023-04-08T08:30:27.056Z,14.30
2023-04-08T08:32:54.026Z,13.05
2023-04-08T08:35:20.995Z,14.52
2023-04-08T08:37:47.917Z,14.23
2023-04-08T08:40:15.546Z,11.68
2023-04-08T08:42:43.069Z,13.18
2023-04-08T08:45:10.413Z,13.82
2023-04-08T08:47:37.480Z,12.93
2023-04-08T08:50:23.097Z,12.77
2023-04-08T08:52:51.340Z,11.90
2023-04-08T08:55:36.382Z,10.15
2023-04-08T08:58:07.802Z,9.57
2023-04-08T09:00:39.098Z,9.52
2023-04-08T09:03:25.817Z,13.00
2023-04-08T09:05:55.488Z,11.77
2023-04-08T09:08:27.436Z,9.10
2023-04-08T09:10:56.328Z,8.15
2023-04-08T09:13:24.812Z,7.72
2023-04-08T09:16:03.763Z,7.30
2023-04-08T09:18:32.235Z,5.78
2023-04-08T09:21:06.522Z,5.55
2023-04-08T09:23:48.097Z,5.35
2023-04-08T09:26:24.304Z,5.95
2023-04-08T09:29:24.942Z,5.40
2023-04-08T09:34:40.076Z,6.88
2023-04-08T09:37:07.360Z,7.13
2023-04-08T09:39:34.591Z,10.07
2023-04-08T09:42:05.683Z,9.90
2023-04-08T09:44:34.714Z,7.43
2023-04-08T09:47:15.487Z,6.22
2023-04-08T09:49:50.232Z,8.88
2023-04-08T09:52:21.560Z,7.65
2023-04-08T09:55:05.926Z,7.97
2023-04-08T09:57:59.422Z,7.07
2023-04-08T10:00:32.896Z,8.60
2023-04-08T10:03:07.097Z,9.95
2023-04-08T10:05:38.610Z,11.20
2023-04-08T10:08:07.103Z,12.10
2023-04-08T10:10:39.826Z,11.10
2023-04-08T10:13:08.098Z,13.30
2023-04-08T10:15:37.585Z,9.70
2023-04-08T10:18:08.021Z,9.70
2023-04-08T10:20:35.843Z,11.25
2023-04-08T10:23:10.193Z,9.98
2023-04-08T10:25:44.969Z,10.43
2023-04-08T10:28:12.202Z,11.00
2023-04-08T10:30:45.869Z,10.77
2023-04-08T10:33:16.622Z,9.27
2023-04-08T10:35:46.746Z,8.27
2023-04-08T10:38:15.059Z,8.35
2023-04-08T10:40:43.400Z,11.35
2023-04-08T10:43:12.067Z,9.63
2023-04-08T10:45:39.838Z,10.35
2023-04-08T10:48:13.819Z,10.20
2023-04-08T10:50:41.162Z,10.93
2023-04-08T10:53:08.704Z,10.10
2023-04-08T10:55:36.062Z,9.90
2023-04-08T10:58:07.793Z,11.10
2023-04-08T11:00:37.036Z,13.32
2023-04-08T11:03:08.782Z,10.88
2023-04-08T11:05:39.651Z,13.27
2023-04-08T11:08:06.720Z,9.98
2023-04-08T11:10:39.072Z,10.63
2023-04-08T11:13:10.040Z,10.60
2023-04-08T11:15:37.494Z,10.30
2023-04-08T11:18:06.164Z,9.88
2023-04-08T11:20:37.198Z,9.45
2023-04-08T11:23:04.219Z,10.75
2023-04-08T11:25:32.044Z,9.95
2023-04-08T11:28:00.380Z,9.50
2023-04-08T11:30:28.106Z,8.40
2023-04-08T11:32:57.131Z,9.23
2023-04-08T11:35:24.246Z,8.57
2023-04-08T11:37:53.028Z,7.63
2023-04-08T11:40:22.135Z,6.88
2023-04-08T11:42:50.077Z,7.97
2023-04-08T11:45:18.640Z,7.45
2023-04-08T11:47:47.433Z,8.88
2023-04-08T11:50:26.644Z,8.93
2023-04-08T11:52:53.972Z,10.27
2023-04-08T11:55:30.760Z,9.32
2023-04-08T11:58:03.642Z,9.60
2023-04-08T12:00:31.453Z,11.45
2023-04-08T12:02:58.778Z,9.10
2023-04-08T12:05:26.179Z,9.82
2023-04-08T12:07:53.098Z,10.75
2023-04-08T12:10:20.688Z,10.90
2023-04-08T12:12:47.555Z,10.55
2023-04-08T12:15:14.498Z,13.38
2023-04-08T12:17:41.603Z,12.13
2023-04-08T12:20:09.051Z,12.55
2023-04-08T12:22:36.327Z,12.13
2023-04-08T12:25:04.241Z,13.02
2023-04-08T12:27:33.566Z,10.85
2023-04-08T12:30:01.083Z,10.30
2023-04-08T12:32:28.197Z,12.38
2023-04-08T12:34:55.959Z,9.60
2023-04-08T12:37:22.852Z,10.98
2023-04-08T12:39:50.058Z,10.98
2023-04-08T12:42:17.056Z,11.88
2023-04-08T12:44:44.100Z,10.80
2023-04-08T12:47:11.041Z,11.00
2023-04-08T12:52:08.606Z,12.13
2023-04-08T12:54:35.605Z,12.27
2023-04-08T12:57:02.972Z,13.73
2023-04-08T12:59:30.025Z,12.30
2023-04-08T13:01:57.134Z,12.23
2023-04-08T13:04:24.128Z,12.13
2023-04-08T13:06:51.775Z,15.35
2023-04-08T13:09:18.788Z,13.75
2023-04-08T13:11:45.926Z,13.88
2023-04-08T13:14:13.791Z,12.10
2023-04-08T13:16:41.115Z,14.77
2023-04-08T13:19:08.031Z,13.35
2023-04-08T13:21:35.036Z,12.90
2023-04-08T13:24:02.264Z,14.13
2023-04-08T13:26:29.433Z,12.52
2023-04-08T13:28:57.578Z,13.70
2023-04-08T13:31:25.907Z,15.15
2023-04-08T13:33:55.244Z,12.80
2023-04-08T13:36:23.280Z,16.08
2023-04-08T13:38:50.680Z,17.17
2023-04-08T13:41:17.906Z,15.45
2023-04-08T13:43:44.855Z,17.23
2023-04-08T13:46:12.039Z,16.15
2023-04-08T13:48:38.950Z,14.70
2023-04-08T13:51:05.939Z,18.10
2023-04-08T13:53:32.842Z,18.67
2023-04-08T13:55:59.819Z,21.13
2023-04-08T13:58:27.232Z,20.13
2023-04-08T14:00:54.170Z,19.08
2023-04-08T14:03:21.387Z,19.77
2023-04-08T14:05:48.407Z,16.10
2023-04-08T14:08:16.140Z,18.88
2023-04-08T14:10:42.993Z,17.17
2023-04-08T14:13:09.842Z,18.67
2023-04-08T14:15:36.705Z,20.17
2023-04-08T14:18:03.657Z,19.60
2023-04-08T14:20:30.624Z,18.25
2023-04-08T14:22:57.571Z,16.33
2023-04-08T14:25:24.981Z,16.50
2023-04-08T14:27:58.421Z,19.48
2023-04-08T14:30:27.526Z,18.60
2023-04-08T14:32:54.957Z,18.13
2023-04-08T14:35:22.120Z,19.38
2023-04-08T14:37:49.072Z,16.92
2023-04-08T14:40:16.527Z,18.00
2023-04-08T14:42:45.456Z,17.38
2023-04-08T14:45:13.264Z,16.77
2023-04-08T14:47:40.356Z,16.60
2023-04-08T14:50:07.995Z,16.38
2023-04-08T14:52:34.912Z,16.98
2023-04-08T14:55:02.916Z,16.50
2023-04-08T14:57:29.921Z,18.45
2023-04-08T14:59:56.824Z,16.80
2023-04-08T15:02:23.860Z,16.70
2023-04-08T15:04:50.969Z,15.23
2023-04-08T15:07:18.500Z,15.40
2023-04-08T15:09:45.305Z,17.17
2023-04-08T15:12:13.644Z,13.85
2023-04-08T15:14:40.757Z,15.75
2023-04-08T15:17:07.680Z,13.32
2023-04-08T15:19:34.590Z,13.75
2023-04-08T15:22:01.430Z,12.43
2023-04-08T15:24:28.549Z,12.07
2023-04-08T15:26:56.329Z,13.85
2023-04-08T15:29:24.114Z,13.63
2023-04-08T15:31:51.261Z,12.55
2023-04-08T15:34:18.416Z,13.80
2023-04-08T15:36:45.769Z,12.63
2023-04-08T15:39:12.664Z,13.30
2023-04-08T15:41:40.617Z,12.48
2023-04-08T15:44:07.479Z,11.63
2023-04-08T15:46:36.797Z,13.48
2023-04-08T15:49:04.590Z,11.98
2023-04-08T15:51:33.048Z,11.48
2023-04-08T15:54:00.124Z,13.48
2023-04-08T15:56:29.636Z,11.63
2023-04-08T15:58:56.731Z,11.35
2023-04-08T16:01:23.687Z,10.40
2023-04-08T16:03:50.754Z,11.50
2023-04-08T16:06:17.714Z,11.05
2023-04-08T16:08:46.931Z,14.02
2023-04-08T16:11:13.908Z,13.32
2023-04-08T16:13:42.502Z,12.77
2023-04-08T16:16:09.872Z,12.27
2023-04-08T16:18:36.989Z,13.82
2023-04-08T16:21:08.201Z,12.55
2023-04-08T16:23:37.598Z,12.82
2023-04-08T16:26:07.953Z,12.95
2023-04-08T16:28:36.904Z,12.73
2023-04-08T16:31:03.903Z,15.02
2023-04-08T16:33:32.200Z,14.35
2023-04-08T16:36:00.278Z,12.63
2023-04-08T16:38:27.359Z,14.93
2023-04-08T16:40:58.384Z,11.32
2023-04-08T16:43:25.913Z,12.63
2023-04-08T16:45:53.566Z,13.30
2023-04-08T16:48:20.766Z,11.90
2023-04-08T16:50:47.660Z,13.25
2023-04-08T16:53:14.588Z,13.00
2023-04-08T16:55:41.660Z,13.15
2023-04-08T16:58:08.506Z,12.13
2023-04-08T17:00:35.388Z,12.00
2023-04-08T17:03:02.490Z,13.55
2023-04-08T17:05:29.604Z,13.25
2023-04-08T17:07:56.738Z,13.52
2023-04-08T17:10:24.176Z,12.73
2023-04-08T17:12:51.282Z,13.20
2023-04-08T17:15:18.360Z,12.20
2023-04-08T17:17:45.821Z,12.38
2023-04-08T17:20:12.733Z,11.85
2023-04-08T17:22:39.788Z,10.88
2023-04-08T17:25:07.349Z,12.05
2023-04-08T17:27:34.446Z,12.85
2023-04-08T17:30:02.770Z,12.30
2023-04-08T17:32:29.645Z,11.52
2023-04-08T17:34:56.646Z,12.15
2023-04-08T17:37:23.638Z,12.88
2023-04-08T17:39:51.681Z,11.02
2023-04-08T17:42:22.397Z,12.13
2023-04-08T17:44:49.542Z,12.48
2023-04-08T17:47:16.497Z,11.85
2023-04-08T17:49:43.444Z,12.55
2023-04-08T17:52:10.285Z,11.65
2023-04-08T17:54:37.279Z,10.93
2023-04-08T17:57:04.364Z,11.73
2023-04-08T17:59:31.398Z,10.88
2023-04-08T18:01:58.536Z,12.25
2023-04-08T18:04:25.831Z,12.68
2023-04-08T18:06:52.760Z,16.02
2023-04-08T18:09:19.627Z,11.18
2023-04-08T18:11:46.530Z,11.70
2023-04-08T18:14:13.663Z,11.60
2023-04-08T18:16:40.577Z,11.65
2023-04-08T18:19:07.449Z,12.50
2023-04-08T18:21:34.376Z,12.30
2023-04-08T18:24:01.197Z,11.77
2023-04-08T18:26:28.584Z,13.07
2023-04-08T18:28:55.689Z,12.68
2023-04-08T18:31:24.289Z,13.70
2023-04-08T18:33:51.581Z,13.52
2023-04-08T18:36:19.162Z,15.30
2023-04-08T18:38:46.174Z,15.00
2023-04-08T18:41:13.405Z,14.40
2023-04-08T18:43:40.825Z,14.23
2023-04-08T18:46:07.872Z,14.32
2023-04-08T18:48:34.771Z,13.13
2023-04-08T18:51:04.358Z,13.65
2023-04-08T18:53:31.242Z,13.65
2023-04-08T19:00:03.057Z,13.68
2023-04-08T19:02:29.963Z,14.85
2023-04-08T19:04:58.189Z,12.43
2023-04-08T19:07:25.196Z,14.18
2023-04-08T19:09:59.062Z,13.65
2023-04-08T19:12:26.623Z,13.57
2023-04-08T19:14:54.319Z,14.20
2023-04-08T19:17:21.315Z,15.65
2023-04-08T19:19:48.186Z,15.57
2023-04-08T19:22:15.340Z,16.00
2023-04-08T19:24:42.193Z,15.80
2023-04-08T19:27:09.088Z,16.17
2023-04-08T19:29:35.922Z,19.75
2023-04-08T19:32:03.516Z,17.60
2023-04-08T19:34:30.850Z,15.23
2023-04-08T19:36:57.904Z,16.30
2023-04-08T19:39:26.686Z,17.27
2023-04-08T19:41:55.359Z,16.10
2023-04-08T19:44:22.280Z,15.85
2023-04-08T19:46:49.247Z,16.02
2023-04-08T19:49:16.251Z,17.15
2023-04-08T19:51:43.075Z,14.93
2023-04-08T19:54:09.912Z,15.65
2023-04-08T19:56:37.096Z,17.60
2023-04-08T19:59:04.104Z,16.00
2023-04-08T20:01:31.613Z,16.33
2023-04-08T20:03:58.584Z,16.42
2023-04-08T20:06:25.547Z,16.73
2023-04-08T20:08:53.663Z,16.35
2023-04-08T20:11:21.207Z,17.38
2023-04-08T20:13:49.427Z,16.92
2023-04-08T20:16:16.703Z,16.65
2023-04-08T20:18:43.743Z,17.73
2023-04-08T20:21:13.924Z,16.95
2023-04-08T20:23:44.371Z,18.40
2023-04-08T20:26:12.846Z,16.50
2023-04-08T20:28:40.459Z,18.10
2023-04-08T20:31:07.829Z,17.48
2023-04-08T20:33:35.762Z,18.20
2023-04-08T20:36:02.727Z,17.98
2023-04-08T20:38:31.782Z,17.13
2023-04-08T20:40:58.785Z,17.08
2023-04-08T20:43:26.358Z,17.48
2023-04-08T20:45:53.823Z,18.60
2023-04-08T20:48:20.946Z,18.67
2023-04-08T20:50:50.700Z,18.17
2023-04-08T20:53:19.618Z,18.02
2023-04-08T20:55:46.775Z,16.98
2023-04-08T20:58:14.026Z,17.65
2023-04-08T21:00:43.622Z,18.02
2023-04-08T21:03:10.666Z,19.48
2023-04-08T21:05:38.248Z,17.88
2023-04-08T21:08:06.136Z,18.73
2023-04-08T21:10:33.046Z,17.75
2023-04-08T21:13:01.078Z,18.55
2023-04-08T21:15:28.396Z,17.80
2023-04-08T21:17:55.436Z,18.63
2023-04-08T21:20:22.354Z,17.67
2023-04-08T21:22:49.502Z,19.17
2023-04-08T21:25:18.035Z,17.70
2023-04-08T21:27:45.167Z,19.58
2023-04-08T21:30:12.353Z,17.52
2023-04-08T21:32:39.905Z,18.48
2023-04-08T21:35:07.118Z,18.30
2023-04-08T21:37:34.656Z,17.63
2023-04-08T21:40:01.609Z,17.52
2023-04-08T21:42:28.949Z,18.67
2023-04-08T21:44:56.679Z,19.92
2023-04-08T21:47:23.679Z,17.60
2023-04-08T21:49:50.927Z,18.13
2023-04-08T21:52:17.963Z,17.58
2023-04-08T21:54:50.487Z,20.38
2023-04-08T21:57:17.623Z,20.05
2023-04-08T21:59:44.960Z,20.20
2023-04-08T22:02:12.181Z,18.08
2023-04-08T22:04:39.169Z,18.88
2023-04-08T22:07:06.418Z,19.67
2023-04-08T22:09:33.761Z,18.23
2023-04-08T22:12:02.222Z,19.10
2023-04-08T22:14:29.453Z,17.17
2023-04-08T22:16:56.604Z,17.80
2023-04-08T22:19:23.829Z,17.63
2023-04-08T22:21:53.447Z,17.88
2023-04-08T22:24:21.301Z,18.02
2023-04-08T22:26:48.277Z,17.92
2023-04-08T22:29:15.768Z,17.25
2023-04-08T22:31:42.754Z,18.08
2023-04-08T22:34:09.811Z,19.80
2023-04-08T22:36:36.721Z,19.90
2023-04-08T22:39:04.064Z,19.15
2023-04-08T22:41:31.156Z,19.95
2023-04-08T22:43:58.242Z,18.92
2023-04-08T22:46:25.572Z,18.52
2023-04-08T22:48:52.851Z,16.98
2023-04-08T22:51:20.080Z,18.17
2023-04-08T22:53:47.007Z,16.00
2023-04-08T22:56:14.380Z,17.48
2023-04-08T22:58:41.703Z,17.73
2023-04-08T23:01:17.407Z,19.58
2023-04-08T23:03:44.899Z,16.13
2023-04-08T23:06:11.922Z,17.15
2023-04-08T23:08:39.094Z,18.65
2023-04-08T23:11:06.683Z,16.75
2023-04-08T23:13:34.345Z,17.38
2023-04-08T23:16:01.500Z,18.00
2023-04-08T23:18:28.562Z,19.10
2023-04-08T23:20:57.165Z,18.35
2023-04-08T23:23:25.404Z,16.58
2023-04-08T23:25:55.385Z,19.30
2023-04-08T23:28:23.318Z,17.88
2023-04-08T23:30:50.486Z,18.02
2023-04-08T23:33:17.551Z,17.45
2023-04-08T23:35:44.664Z,19.08
2023-04-08T23:38:11.878Z,16.40
2023-04-08T23:40:38.848Z,17.83
2023-04-08T23:43:05.941Z,15.55
2023-04-08T23:45:33.856Z,15.55
2023-04-08T23:48:01.143Z,17.98
2023-04-08T23:50:28.266Z,16.88
2023-04-08T23:52:55.820Z,17.63
2023-04-08T23:55:22.752Z,17.83
2023-04-08T23:57:50.899Z,18.08
